Time;durP1;ratioP1;P1;durP2;ratioP2;P2;SDS_P1;SDS_P2;PMS_P1;PMS_P2;Temp;Humidity;BMP_temperature;BMP_pressure;BME280_temperature;BME280_humidity;BME280_pressure;Samples;Min_cycle;Max_cycle;Signal;HPM_P1;HPM_P2
2023/11/16 00:02:27;;;;;;;12.40;5.47;;;9.20;1.00;;;;;;5058309;28;20199;-81
2023/11/16 00:04:54;;;;;;;9.47;5.00;;;9.20;99.90;;;;;;5057877;28;20210;-81
2023/11/16 00:07:24;;;;;;;8.87;4.97;;;9.20;99.90;;;;;;5057110;28;20227;-81
2023/11/16 00:09:52;;;;;;;10.40;5.77;;;9.20;99.90;;;;;;5058100;28;20191;-82
2023/11/16 00:12:20;;;;;;;23.30;6.10;;;9.20;99.90;;;;;;5056600;28;20629;-81
2023/11/16 00:14:46;;;;;;;11.67;4.80;;;9.20;99.90;;;;;;5057675;28;20237;-81
2023/11/16 00:17:13;;;;;;;7.90;4.90;;;9.20;99.90;;;;;;5057026;28;20277;-81
2023/11/16 00:19:42;;;;;;;12.17;5.67;;;9.10;99.90;;;;;;5057791;28;20281;-81
2023/11/16 00:22:10;;;;;;;14.40;5.87;;;9.20;99.90;;;;;;5072367;28;20229;-81
2023/11/16 00:24:36;;;;;;;13.73;4.70;;;9.20;1.00;;;;;;5077415;28;20619;-82
2023/11/16 00:27:05;;;;;;;13.63;5.70;;;9.30;1.00;;;;;;5076750;28;20218;-79
2023/11/16 00:29:32;;;;;;;9.70;4.23;;;9.30;1.00;;;;;;5077164;28;20199;-80
2023/11/16 00:31:59;;;;;;;12.93;5.13;;;9.20;1.00;;;;;;5077164;28;20202;-81
2023/11/16 00:34:26;;;;;;;8.97;4.13;;;9.20;1.00;;;;;;5076629;28;20206;-81
2023/11/16 00:36:53;;;;;;;9.07;4.27;;;9.20;1.00;;;;;;5078804;28;20280;-82
2023/11/16 00:39:20;;;;;;;9.23;4.70;;;9.30;1.00;;;;;;5077722;28;20198;-80
2023/11/16 00:41:47;;;;;;;8.43;4.33;;;9.30;1.00;;;;;;5077729;28;20229;-81
2023/11/16 00:44:19;;;;;;;13.40;4.73;;;9.30;1.00;;;;;;5079390;28;20216;-79
2023/11/16 00:46:48;;;;;;;10.87;5.00;;;9.40;1.00;;;;;;5078098;28;20226;-83
2023/11/16 00:49:15;;;;;;;12.67;4.97;;;9.30;1.00;;;;;;5077959;28;20230;-83
2023/11/16 00:51:43;;;;;;;10.47;4.33;;;9.30;1.00;;;;;;5077487;28;20202;-79
2023/11/16 00:54:12;;;;;;;10.07;3.87;;;9.30;1.00;;;;;;5077304;28;20202;-82
2023/11/16 00:56:39;;;;;;;10.10;4.10;;;9.30;1.00;;;;;;5075786;28;20576;-80
2023/11/16 00:59:06;;;;;;;11.13;3.93;;;9.30;1.00;;;;;;5056986;28;20575;-80
2023/11/16 01:01:34;;;;;;;7.97;3.77;;;9.20;1.00;;;;;;5056628;28;20223;-81
2023/11/16 01:04:02;;;;;;;10.93;4.00;;;9.30;1.00;;;;;;5056846;28;20302;-81
2023/11/16 01:06:29;;;;;;;7.87;4.43;;;9.30;1.00;;;;;;5057016;28;20231;-80
2023/11/16 01:08:57;;;;;;;12.80;3.77;;;9.30;1.00;;;;;;5057215;28;20207;-82
2023/11/16 01:11:27;;;;;;;8.93;4.00;;;9.30;1.00;;;;;;5056891;28;20220;-81
2023/11/16 01:13:54;;;;;;;12.17;3.90;;;9.30;1.00;;;;;;5056626;28;20623;-81
2023/11/16 01:16:25;;;;;;;8.63;4.50;;;9.50;1.00;;;;;;5056357;28;20250;-80
2023/11/16 01:18:54;;;;;;;6.27;3.83;;;9.40;1.00;;;;;;5070431;28;20206;-80
2023/11/16 01:21:22;;;;;;;10.17;4.47;;;9.30;1.00;;;;;;5078219;28;20698;-80
2023/11/16 01:23:51;;;;;;;10.57;3.80;;;9.30;1.00;;;;;;5077398;28;20210;-79
2023/11/16 01:26:18;;;;;;;11.83;3.90;;;9.30;1.00;;;;;;5077356;28;20229;-79
2023/11/16 01:28:50;;;;;;;8.90;3.43;;;9.50;1.00;;;;;;5078267;28;20202;-81
2023/11/16 01:31:19;;;;;;;7.80;3.70;;;9.40;1.00;;;;;;5077699;28;20284;-79
2023/11/16 01:33:46;;;;;;;6.33;3.70;;;9.30;1.00;;;;;;5076371;28;20259;-80
2023/11/16 01:36:16;;;;;;;7.23;3.67;;;9.30;1.00;;;;;;5077997;28;20688;-80
2023/11/16 01:38:45;;;;;;;12.33;3.90;;;9.30;1.00;;;;;;5077697;28;20206;-80
2023/11/16 01:41:12;;;;;;;7.13;3.87;;;9.30;1.00;;;;;;5078011;28;20233;-80
2023/11/16 01:43:40;;;;;;;7.10;4.10;;;9.30;1.00;;;;;;5077699;28;20210;-79
2023/11/16 01:46:07;;;;;;;8.03;4.20;;;9.30;1.00;;;;;;5076366;28;20216;-81
2023/11/16 01:48:35;;;;;;;7.33;4.40;;;9.20;1.00;;;;;;5076267;28;20209;-81
2023/11/16 01:51:04;;;;;;;13.63;5.20;;;9.30;1.00;;;;;;5075347;28;20209;-83
2023/11/16 01:53:35;;;;;;;9.57;5.53;;;9.30;1.00;;;;;;5076198;28;20308;-81
2023/11/16 01:56:03;;;;;;;12.23;5.80;;;9.40;1.00;;;;;;5076982;28;20213;-80
2023/11/16 01:58:33;;;;;;;11.50;7.37;;;9.30;1.00;;;;;;5080009;28;20232;-83
2023/11/16 02:01:00;;;;;;;8.97;4.83;;;9.30;1.00;;;;;;5080732;28;20309;-82
2023/11/16 02:03:27;;;;;;;8.57;5.73;;;9.30;1.00;;;;;;5082172;28;20205;-81
2023/11/16 02:05:54;;;;;;;9.00;4.67;;;9.30;1.00;;;;;;5082190;28;20204;-81
2023/11/16 02:08:22;;;;;;;7.57;4.53;;;9.30;1.00;;;;;;5082136;28;20206;-80
2023/11/16 02:10:50;;;;;;;11.30;5.80;;;9.40;99.90;;;;;;5081138;28;20209;-81
2023/11/16 02:13:20;;;;;;;8.60;4.67;;;9.30;99.90;;;;;;5081059;28;20590;-79
2023/11/16 02:15:48;;;;;;;8.57;4.43;;;9.40;99.90;;;;;;5082024;28;20256;-80
2023/11/16 02:18:16;;;;;;;12.27;4.57;;;9.50;99.90;;;;;;5080711;28;20206;-80
2023/11/16 02:20:45;;;;;;;8.23;4.77;;;9.40;99.90;;;;;;5081647;28;20249;-81
2023/11/16 02:23:13;;;;;;;9.83;4.70;;;9.40;99.90;;;;;;5081946;28;20225;-81
2023/11/16 02:25:44;;;;;;;12.23;4.90;;;9.30;99.90;;;;;;5081657;28;20202;-80
2023/11/16 02:28:11;;;;;;;12.57;5.53;;;9.40;99.90;;;;;;5081166;28;20653;-79
2023/11/16 02:30:38;;;;;;;9.03;4.67;;;9.40;99.90;;;;;;5081459;28;20309;-80
2023/11/16 02:33:05;;;;;;;9.43;4.63;;;9.30;99.90;;;;;;5081288;28;20203;-80
2023/11/16 02:35:32;;;;;;;12.87;4.30;;;9.30;99.90;;;;;;5080704;28;20270;-81
2023/11/16 02:37:59;;;;;;;13.93;4.67;;;9.30;99.90;;;;;;5080909;28;20260;-81
2023/11/16 02:40:27;;;;;;;9.73;4.20;;;9.30;99.90;;;;;;5081648;28;20212;-82
2023/11/16 02:42:54;;;;;;;14.00;4.73;;;9.30;1.00;;;;;;5080735;28;20213;-82
2023/11/16 02:45:22;;;;;;;10.10;3.90;;;9.30;1.00;;;;;;5080602;28;20208;-82
2023/11/16 02:47:50;;;;;;;10.10;3.60;;;9.30;1.00;;;;;;5080451;28;20245;-80
2023/11/16 02:50:18;;;;;;;10.97;4.10;;;9.20;1.00;;;;;;5072334;28;20241;-83
2023/11/16 02:52:44;;;;;;;8.70;4.13;;;9.20;1.00;;;;;;5060245;28;20673;-83
2023/11/16 02:55:11;;;;;;;10.87;4.60;;;9.30;1.00;;;;;;5060395;28;20702;-80
2023/11/16 02:57:40;;;;;;;13.30;4.73;;;9.30;1.00;;;;;;5060211;28;20211;-82
2023/11/16 03:00:11;;;;;;;12.67;3.97;;;9.30;1.00;;;;;;5060382;28;20203;-81
2023/11/16 03:02:40;;;;;;;12.63;3.80;;;9.30;1.00;;;;;;5059205;28;20226;-82
2023/11/16 03:05:09;;;;;;;10.30;4.33;;;9.30;99.90;;;;;;5059710;28;20253;-81
2023/11/16 03:07:36;;;;;;;9.77;3.77;;;9.30;99.90;;;;;;5068850;28;20268;-80
2023/11/16 03:10:04;;;;;;;10.23;4.20;;;9.40;99.90;;;;;;5079672;28;20202;-82
2023/11/16 03:12:30;;;;;;;7.70;4.20;;;9.40;99.90;;;;;;5080411;28;20213;-80
2023/11/16 03:14:59;;;;;;;7.03;4.10;;;9.30;99.90;;;;;;5080923;28;20273;-80
2023/11/16 03:17:26;;;;;;;7.60;4.50;;;9.40;99.90;;;;;;5080553;28;20237;-80
2023/11/16 03:19:54;;;;;;;9.83;4.30;;;9.30;1.00;;;;;;5081037;28;20207;-79
2023/11/16 03:22:20;;;;;;;11.97;4.30;;;9.20;1.00;;;;;;5078370;28;20605;-80
2023/11/16 03:24:47;;;;;;;9.80;3.90;;;9.20;1.00;;;;;;5077936;28;20202;-84
2023/11/16 03:27:15;;;;;;;7.20;3.47;;;9.20;1.00;;;;;;5077941;28;20769;-81
2023/11/16 03:29:42;;;;;;;11.50;4.50;;;9.20;1.00;;;;;;5078108;28;20244;-81
2023/11/16 03:32:10;;;;;;;14.07;4.67;;;9.20;1.00;;;;;;5077199;28;20293;-80
2023/11/16 03:34:37;;;;;;;7.13;3.80;;;9.20;1.00;;;;;;5077724;28;20206;-80
2023/11/16 03:37:04;;;;;;;7.27;4.10;;;9.10;1.00;;;;;;5078099;28;20596;-80
2023/11/16 03:39:31;;;;;;;13.27;6.30;;;9.10;1.00;;;;;;5079414;28;20202;-81
2023/11/16 03:41:58;;;;;;;12.23;6.03;;;9.10;1.00;;;;;;5079696;28;20218;-81
2023/11/16 03:44:26;;;;;;;9.57;4.10;;;9.20;1.00;;;;;;5079627;28;20270;-80
2023/11/16 03:46:53;;;;;;;9.13;4.23;;;9.10;1.00;;;;;;5079706;28;20602;-80
2023/11/16 03:49:21;;;;;;;9.63;4.33;;;9.10;1.00;;;;;;5079720;28;20666;-80
2023/11/16 03:51:48;;;;;;;7.00;3.50;;;9.10;1.00;;;;;;5079601;28;20205;-81
2023/11/16 03:54:15;;;;;;;9.53;4.63;;;9.10;1.00;;;;;;5080782;28;20222;-80
2023/11/16 03:56:42;;;;;;;7.13;3.87;;;9.10;1.00;;;;;;5080122;28;20254;-80
2023/11/16 03:59:11;;;;;;;10.07;4.30;;;9.10;1.00;;;;;;5079844;28;20266;-79
2023/11/16 04:01:39;;;;;;;7.83;4.20;;;9.10;1.00;;;;;;5080158;28;20214;-80
2023/11/16 04:04:10;;;;;;;10.87;4.47;;;9.10;1.00;;;;;;5079905;28;20204;-81
2023/11/16 04:06:39;;;;;;;13.87;4.60;;;9.10;1.00;;;;;;5077349;28;20226;-80
2023/11/16 04:09:07;;;;;;;9.70;4.53;;;9.10;1.00;;;;;;5078887;28;20203;-80
2023/11/16 04:11:34;;;;;;;10.87;5.20;;;9.10;1.00;;;;;;5078388;28;20205;-82
2023/11/16 04:14:01;;;;;;;9.83;4.50;;;9.10;1.00;;;;;;5079747;28;20208;-83
2023/11/16 04:16:28;;;;;;;8.07;4.40;;;9.10;1.00;;;;;;5080054;28;20222;-80
2023/11/16 04:18:56;;;;;;;10.33;4.60;;;9.10;1.00;;;;;;5083452;28;20202;-80
2023/11/16 04:21:25;;;;;;;9.03;4.77;;;9.10;1.00;;;;;;5069181;28;20590;-79
2023/11/16 04:23:56;;;;;;;9.90;5.03;;;9.10;1.00;;;;;;5081092;28;20194;-81
2023/11/16 04:26:24;;;;;;;7.53;4.60;;;9.10;1.00;;;;;;5073917;28;20755;-80
2023/11/16 04:28:52;;;;;;;14.37;5.47;;;9.10;1.00;;;;;;5083790;28;20198;-80
2023/11/16 04:31:19;;;;;;;8.83;4.20;;;9.00;1.00;;;;;;5075344;28;20258;-80
2023/11/16 04:33:47;;;;;;;8.63;4.13;;;9.00;1.00;;;;;;5081116;28;20202;-81
2023/11/16 04:36:17;;;;;;;15.67;4.53;;;9.00;1.00;;;;;;5080363;28;20224;-81
2023/11/16 04:38:45;;;;;;;11.53;4.20;;;9.00;1.00;;;;;;5071467;28;20210;-81
2023/11/16 04:41:13;;;;;;;9.43;3.80;;;9.10;1.00;;;;;;5078698;28;20206;-82
2023/11/16 04:43:40;;;;;;;12.07;3.30;;;9.10;1.00;;;;;;5071135;28;20206;-81
2023/11/16 04:46:07;;;;;;;7.30;3.70;;;9.00;99.90;;;;;;5076145;28;20241;-81
2023/11/16 04:48:34;;;;;;;9.80;3.90;;;9.00;99.90;;;;;;5077092;28;20218;-81
2023/11/16 04:51:03;;;;;;;10.07;4.10;;;9.00;99.90;;;;;;5079590;28;20228;-80
2023/11/16 04:53:29;;;;;;;5.47;3.80;;;9.10;99.90;;;;;;5071135;28;20228;-82
2023/11/16 04:55:57;;;;;;;7.80;4.00;;;9.10;99.90;;;;;;5080206;28;20213;-81
2023/11/16 04:58:25;;;;;;;13.30;4.33;;;9.10;99.90;;;;;;5073017;28;20208;-81
2023/11/16 05:00:52;;;;;;;5.80;3.40;;;9.00;99.90;;;;;;5079936;28;20300;-83
2023/11/16 05:03:21;;;;;;;9.63;3.90;;;9.10;99.90;;;;;;5072458;28;20228;-82
2023/11/16 05:05:48;;;;;;;8.10;3.70;;;9.00;99.90;;;;;;5081374;28;20206;-81
2023/11/16 05:08:15;;;;;;;11.87;3.87;;;9.00;99.90;;;;;;5071960;28;20209;-81
2023/11/16 05:10:42;;;;;;;7.40;3.13;;;9.00;99.90;;;;;;5078598;28;20270;-82
2023/11/16 05:13:09;;;;;;;5.00;2.87;;;9.00;99.90;;;;;;5069875;28;20627;-81
2023/11/16 05:15:37;;;;;;;5.83;3.10;;;9.00;99.90;;;;;;5078081;28;20213;-81
2023/11/16 05:18:05;;;;;;;9.27;3.40;;;9.00;99.90;;;;;;5070642;28;20226;-83
2023/11/16 05:20:31;;;;;;;7.97;2.93;;;9.00;99.90;;;;;;5078619;28;20681;-81
2023/11/16 05:22:58;;;;;;;4.43;3.20;;;8.90;99.90;;;;;;5078020;28;20222;-82
2023/11/16 05:25:25;;;;;;;6.30;3.10;;;8.90;99.90;;;;;;5069163;28;20206;-82
2023/11/16 05:27:52;;;;;;;6.90;2.70;;;8.90;1.00;;;;;;5070028;28;20305;-81
2023/11/16 05:30:19;;;;;;;5.17;2.60;;;8.90;99.90;;;;;;5067858;28;20207;-80
2023/11/16 05:32:47;;;;;;;7.67;3.03;;;8.90;99.90;;;;;;5070188;28;20217;-81
2023/11/16 05:35:14;;;;;;;6.27;2.63;;;8.80;99.90;;;;;;5082278;28;20214;-80
2023/11/16 05:37:41;;;;;;;6.50;2.60;;;8.90;99.90;;;;;;5082588;28;20287;-80
2023/11/16 05:40:09;;;;;;;7.37;3.00;;;8.80;99.90;;;;;;5082925;28;20217;-80
2023/11/16 05:42:36;;;;;;;6.57;3.10;;;8.80;1.00;;;;;;5072010;28;20678;-80
2023/11/16 05:45:03;;;;;;;5.70;2.97;;;8.80;1.00;;;;;;5074559;28;20579;-81
2023/11/16 05:47:30;;;;;;;7.77;3.57;;;8.80;1.00;;;;;;5074742;28;20231;-80
2023/11/16 05:49:59;;;;;;;8.77;3.43;;;8.80;1.00;;;;;;5073415;28;20209;-81
2023/11/16 05:52:26;;;;;;;7.83;3.00;;;8.80;1.00;;;;;;5078927;28;20578;-81
2023/11/16 05:54:53;;;;;;;5.73;2.53;;;8.80;1.00;;;;;;5076569;28;20202;-80
2023/11/16 05:57:20;;;;;;;8.90;3.13;;;8.80;1.00;;;;;;5077166;28;20214;-80
2023/11/16 05:59:47;;;;;;;6.00;2.43;;;8.80;1.00;;;;;;5082101;28;20202;-81
2023/11/16 06:02:14;;;;;;;10.87;2.60;;;8.90;1.00;;;;;;5080966;28;20226;-81
2023/11/16 06:04:42;;;;;;;6.57;2.00;;;8.80;99.90;;;;;;5073911;28;20693;-81
2023/11/16 06:07:10;;;;;;;4.40;1.67;;;8.80;99.90;;;;;;5083356;28;20250;-82
2023/11/16 06:09:37;;;;;;;2.57;1.40;;;8.90;99.90;;;;;;5083001;28;20198;-81
2023/11/16 06:12:04;;;;;;;3.07;1.50;;;8.80;99.90;;;;;;5079048;28;20202;-81
2023/11/16 06:14:34;;;;;;;3.47;1.57;;;8.80;1.00;;;;;;5087816;28;20202;-81
2023/11/16 06:17:01;;;;;;;2.07;1.40;;;8.80;1.00;;;;;;5081158;28;20694;-81
2023/11/16 06:19:29;;;;;;;6.33;1.87;;;8.70;1.00;;;;;;5081749;28;20309;-81
2023/11/16 06:21:55;;;;;;;5.37;1.50;;;8.70;1.00;;;;;;5082314;28;20233;-81
2023/11/16 06:24:24;;;;;;;4.23;1.37;;;8.70;1.00;;;;;;5079943;28;20206;-81
2023/11/16 06:26:50;;;;;;;4.97;1.60;;;8.70;1.00;;;;;;5074101;28;20780;-81
2023/11/16 06:29:17;;;;;;;2.03;1.30;;;8.60;25.90;;;;;;5079455;28;20817;-80
2023/11/16 06:31:44;;;;;;;4.70;2.10;;;8.60;99.90;;;;;;5078547;28;20200;-80
2023/11/16 06:34:12;;;;;;;3.37;1.60;;;8.50;99.90;;;;;;5080760;28;20716;-80
2023/11/16 06:36:41;;;;;;;4.87;2.00;;;8.50;1.00;;;;;;5079358;28;20226;-80
2023/11/16 06:39:07;;;;;;;3.37;1.53;;;8.50;1.00;;;;;;5070344;28;20217;-81
2023/11/16 06:41:36;;;;;;;4.93;1.63;;;8.50;1.00;;;;;;5069124;28;20221;-80
2023/11/16 06:44:05;;;;;;;3.93;2.27;;;8.40;99.90;;;;;;5075790;28;20206;-81
2023/11/16 06:46:33;;;;;;;3.60;1.90;;;8.50;1.00;;;;;;5081631;28;20276;-80
2023/11/16 06:49:01;;;;;;;4.27;1.57;;;8.50;99.90;;;;;;5079067;28;20260;-80
2023/11/16 06:51:28;;;;;;;1.93;1.20;;;8.50;99.90;;;;;;5076857;28;20221;-80
2023/11/16 06:53:57;;;;;;;2.57;1.37;;;8.40;99.90;;;;;;5076123;28;20586;-81
2023/11/16 06:56:27;;;;;;;5.20;1.67;;;8.40;99.90;;;;;;5061089;28;20223;-82
2023/11/16 06:58:55;;;;;;;2.97;1.30;;;8.30;99.90;;;;;;5077976;28;20557;-82
2023/11/16 07:01:22;;;;;;;3.13;0.93;;;8.30;39.80;;;;;;5068415;28;20211;-82
2023/11/16 07:03:49;;;;;;;5.73;1.33;;;8.30;1.00;;;;;;5070349;28;20249;-82
2023/11/16 07:06:18;;;;;;;3.47;0.80;;;8.10;1.00;;;;;;5063202;28;20603;-82
2023/11/16 07:08:46;;;;;;;2.93;1.10;;;8.00;1.00;;;;;;5074670;28;20240;-82
2023/11/16 07:11:13;;;;;;;5.43;1.20;;;8.00;1.00;;;;;;5066467;28;20230;-82
2023/11/16 07:13:39;;;;;;;1.13;1.03;;;7.90;1.00;;;;;;5062635;28;20209;-81
2023/11/16 07:16:08;;;;;;;4.37;0.93;;;7.90;1.00;;;;;;5063405;28;20202;-81
2023/11/16 07:18:35;;;;;;;5.80;0.93;;;7.80;1.00;;;;;;5059033;28;20222;-82
2023/11/16 07:21:04;;;;;;;4.07;0.90;;;8.10;12.20;;;;;;5065609;28;20202;-80
2023/11/16 07:23:32;;;;;;;3.53;0.80;;;7.90;74.40;;;;;;5063931;28;20244;-81
2023/11/16 07:26:00;;;;;;;3.43;1.00;;;7.90;27.40;;;;;;5068512;28;20692;-82
2023/11/16 07:28:26;;;;;;;8.17;2.03;;;7.90;3.20;;;;;;5074079;28;20210;-81
2023/11/16 07:30:54;;;;;;;4.43;0.73;;;8.00;52.30;;;;;;5062369;28;20600;-83
2023/11/16 07:33:23;;;;;;;1.20;0.40;;;8.00;1.00;;;;;;5073576;28;20201;-82
2023/11/16 07:35:51;;;;;;;3.30;0.77;;;8.10;1.00;;;;;;5069890;28;20198;-82
2023/11/16 07:38:20;;;;;;;1.87;0.50;;;8.00;1.00;;;;;;5075358;28;20201;-81
2023/11/16 07:40:46;;;;;;;4.50;1.00;;;8.00;1.00;;;;;;5074533;28;20206;-80
2023/11/16 07:43:15;;;;;;;1.07;0.47;;;8.00;1.00;;;;;;5066325;28;20288;-81
2023/11/16 07:45:43;;;;;;;1.27;0.70;;;7.90;1.00;;;;;;5065315;28;20250;-82
2023/11/16 07:48:13;;;;;;;2.27;0.73;;;7.90;1.00;;;;;;5064873;28;20701;-81
2023/11/16 07:50:42;;;;;;;1.80;0.90;;;7.80;1.00;;;;;;5064594;28;20202;-79
2023/11/16 07:53:10;;;;;;;1.53;0.50;;;7.80;1.00;;;;;;5065404;28;20288;-82
2023/11/16 07:55:37;;;;;;;2.33;0.87;;;7.90;1.00;;;;;;5073158;28;20285;-81
2023/11/16 07:58:05;;;;;;;3.47;0.83;;;7.70;1.00;;;;;;5066554;28;20227;-81
2023/11/16 08:00:37;;;;;;;2.97;0.67;;;7.70;1.00;;;;;;5063948;28;20247;-81
2023/11/16 08:05:50;;;;;;;4.43;0.97;;;7.60;1.00;;;;;;5066689;28;20271;-81
2023/11/16 08:08:20;;;;;;;2.10;0.70;;;7.90;1.00;;;;;;5073058;28;20206;-81
2023/11/16 08:10:48;;;;;;;11.63;1.00;;;8.10;1.00;;;;;;5065490;28;20201;-80
2023/11/16 08:13:18;;;;;;;1.70;0.50;;;8.40;1.00;;;;;;5073608;28;20200;-80
2023/11/16 08:15:52;;;;;;;4.57;0.70;;;8.50;1.00;;;;;;5057635;28;20225;-80
2023/11/16 08:18:21;;;;;;;1.93;0.70;;;8.70;1.00;;;;;;5073540;28;20205;-81
2023/11/16 08:20:49;;;;;;;5.03;0.87;;;8.90;1.00;;;;;;5073193;28;20209;-81
2023/11/16 08:23:18;;;;;;;1.47;0.77;;;8.70;1.00;;;;;;5073231;28;20275;-81
2023/11/16 08:25:47;;;;;;;4.53;0.80;;;8.70;1.00;;;;;;5061777;28;20238;-81
2023/11/16 08:28:14;;;;;;;2.07;0.47;;;9.00;1.00;;;;;;5080650;28;20221;-80
2023/11/16 08:30:42;;;;;;;3.83;0.70;;;9.30;1.00;;;;;;5064856;28;20264;-80
2023/11/16 08:33:11;;;;;;;3.57;0.57;;;8.90;1.00;;;;;;5066172;28;20671;-81
2023/11/16 08:35:38;;;;;;;2.50;0.40;;;8.60;1.00;;;;;;5072958;28;20253;-80
2023/11/16 08:38:07;;;;;;;3.97;0.70;;;8.40;1.00;;;;;;5066398;28;20933;-80
2023/11/16 08:40:34;;;;;;;2.63;0.97;;;9.30;1.00;;;;;;5055834;28;20289;-80
2023/11/16 08:43:01;;;;;;;2.43;0.60;;;9.00;99.90;;;;;;5064628;28;20225;-80
2023/11/16 08:45:28;;;;;;;1.17;0.43;;;8.70;99.90;;;;;;5072992;28;20206;-80
2023/11/16 08:47:59;;;;;;;1.90;0.50;;;8.40;1.00;;;;;;5067597;28;20726;-80
2023/11/16 08:50:26;;;;;;;6.60;1.30;;;8.50;1.00;;;;;;5069556;28;20260;-80
2023/11/16 08:52:53;;;;;;;5.03;0.87;;;8.70;99.90;;;;;;5071681;28;20285;-80
2023/11/16 08:55:22;;;;;;;4.37;1.20;;;8.60;99.90;;;;;;5070978;28;20202;-81
2023/11/16 08:57:50;;;;;;;3.63;0.60;;;8.90;99.90;;;;;;5060744;28;20226;-81
2023/11/16 09:00:28;;;;;;;2.47;0.60;;;8.80;99.90;;;;;;5069240;28;20283;-82
2023/11/16 09:02:57;;;;;;;1.43;0.60;;;8.60;99.90;;;;;;5058500;28;20600;-81
2023/11/16 09:05:25;;;;;;;1.73;0.47;;;8.90;99.90;;;;;;5064070;28;20301;-81
2023/11/16 09:07:53;;;;;;;7.10;2.07;;;8.90;99.90;;;;;;5059054;28;20744;-80
2023/11/16 09:10:21;;;;;;;1.03;0.70;;;9.10;99.90;;;;;;5053693;28;20602;-81
2023/11/16 09:12:49;;;;;;;1.20;0.87;;;9.00;99.90;;;;;;5079728;28;20209;-80
2023/11/16 09:15:16;;;;;;;3.33;0.80;;;8.90;99.90;;;;;;5072944;28;20222;-81
2023/11/16 09:17:45;;;;;;;1.97;0.87;;;8.70;99.90;;;;;;5065260;28;20332;-80
2023/11/16 09:20:13;;;;;;;3.90;1.20;;;8.60;99.90;;;;;;5065356;28;20746;-82
2023/11/16 09:22:42;;;;;;;3.20;1.00;;;8.60;99.90;;;;;;5068622;28;20658;-83
2023/11/16 09:25:15;;;;;;;4.33;1.00;;;8.70;99.90;;;;;;5074196;28;20669;-82
2023/11/16 09:27:43;;;;;;;5.67;1.70;;;8.50;99.90;;;;;;5066103;28;20652;-82
2023/11/16 09:30:14;;;;;;;1.93;0.73;;;8.50;99.90;;;;;;5065747;28;20194;-82
2023/11/16 09:32:41;;;;;;;1.40;0.60;;;8.50;99.90;;;;;;5072681;28;20256;-83
2023/11/16 09:35:09;;;;;;;2.47;0.80;;;8.60;99.90;;;;;;5073874;28;20206;-82
2023/11/16 09:37:36;;;;;;;2.97;0.60;;;8.70;99.90;;;;;;5071828;28;20231;-83
2023/11/16 09:40:05;;;;;;;1.80;1.23;;;8.70;99.90;;;;;;5063370;28;20527;-82
2023/11/16 09:42:33;;;;;;;1.10;0.70;;;8.80;99.90;;;;;;5064693;28;20211;-82
2023/11/16 09:45:05;;;;;;;5.90;1.20;;;8.90;99.90;;;;;;5067386;28;20227;-82
2023/11/16 09:47:40;;;;;;;1.90;0.90;;;8.90;99.90;;;;;;5063923;28;20227;-82
2023/11/16 09:50:09;;;;;;;3.23;0.60;;;9.10;99.90;;;;;;5066437;28;20219;-82
2023/11/16 09:52:39;;;;;;;0.87;0.70;;;9.20;99.90;;;;;;5062928;28;20206;-82
2023/11/16 09:55:09;;;;;;;2.70;0.80;;;9.20;99.90;;;;;;5066730;28;20720;-82
2023/11/16 09:57:37;;;;;;;2.97;0.50;;;9.00;99.90;;;;;;5061200;28;20242;-82
2023/11/16 10:00:14;;;;;;;2.70;0.53;;;9.00;99.90;;;;;;5061636;28;20210;-83
2023/11/16 10:02:44;;;;;;;1.60;0.47;;;9.30;99.90;;;;;;5065045;28;20221;-83
2023/11/16 10:05:22;;;;;;;1.90;0.30;;;9.50;91.00;;;;;;5073504;28;20206;-83
2023/11/16 10:07:52;;;;;;;2.67;0.77;;;9.70;49.70;;;;;;5066120;28;20238;-83
2023/11/16 10:10:19;;;;;;;3.93;0.73;;;9.90;32.30;;;;;;5057428;28;20579;-83
2023/11/16 10:12:49;;;;;;;2.10;0.57;;;10.20;2.00;;;;;;5065786;28;20259;-83
2023/11/16 10:15:19;;;;;;;1.67;0.50;;;10.10;1.00;;;;;;5073960;28;20210;-84
2023/11/16 10:17:46;;;;;;;1.90;0.47;;;10.20;1.00;;;;;;5061884;28;20313;-84
2023/11/16 10:20:14;;;;;;;2.07;0.50;;;10.20;1.00;;;;;;5071245;28;20225;-82
2023/11/16 10:22:41;;;;;;;0.83;0.80;;;10.00;1.00;;;;;;5068440;28;20232;-82
2023/11/16 10:25:10;;;;;;;2.03;0.70;;;9.60;1.00;;;;;;5076279;28;20230;-83
2023/11/16 10:27:37;;;;;;;1.90;0.57;;;9.60;1.00;;;;;;5069222;28;20233;-83
2023/11/16 10:30:06;;;;;;;3.30;1.63;;;9.70;1.00;;;;;;5062596;28;20287;-82
2023/11/16 10:32:36;;;;;;;1.93;0.57;;;9.70;1.00;;;;;;5060818;28;20252;-83
2023/11/16 10:35:09;;;;;;;0.80;0.30;;;9.50;1.00;;;;;;5068700;28;20255;-83
2023/11/16 10:37:36;;;;;;;3.00;0.83;;;9.40;1.00;;;;;;5068535;28;20631;-83
2023/11/16 10:40:06;;;;;;;4.97;0.90;;;9.30;1.00;;;;;;5069900;28;20203;-82
2023/11/16 10:42:34;;;;;;;1.87;0.70;;;9.10;1.00;;;;;;5073511;28;20245;-83
2023/11/16 10:45:02;;;;;;;1.13;0.57;;;9.10;1.00;;;;;;5073074;28;20273;-82
2023/11/16 10:47:29;;;;;;;2.70;0.87;;;9.20;1.00;;;;;;5076887;28;20583;-82
2023/11/16 10:49:58;;;;;;;3.90;0.70;;;9.40;1.00;;;;;;5066850;28;20568;-83
2023/11/16 10:52:27;;;;;;;2.10;0.60;;;9.20;1.00;;;;;;5068976;28;20210;-82
2023/11/16 10:54:58;;;;;;;4.07;0.73;;;9.10;1.00;;;;;;5059132;28;20210;-83
2023/11/16 10:57:25;;;;;;;2.23;0.63;;;9.40;1.00;;;;;;5066597;28;20272;-82
2023/11/16 10:59:52;;;;;;;1.47;0.60;;;9.50;1.00;;;;;;5070643;28;20209;-82
2023/11/16 11:02:20;;;;;;;3.13;0.70;;;9.50;1.00;;;;;;5063914;28;20693;-83
2023/11/16 11:04:53;;;;;;;2.83;1.00;;;9.70;1.00;;;;;;5075322;28;20225;-83
2023/11/16 11:07:23;;;;;;;2.27;0.87;;;10.10;1.00;;;;;;5067085;28;20358;-83
2023/11/16 11:09:51;;;;;;;2.47;0.90;;;10.20;1.00;;;;;;5075051;28;20206;-83
2023/11/16 11:12:19;;;;;;;4.20;0.90;;;10.50;1.00;;;;;;5065441;28;20213;-83
2023/11/16 11:14:47;;;;;;;2.00;0.70;;;10.30;1.00;;;;;;5068716;28;20207;-81
2023/11/16 11:17:18;;;;;;;1.50;0.50;;;10.20;1.00;;;;;;5074582;28;20226;-80
2023/11/16 11:19:55;;;;;;;1.53;0.70;;;10.30;1.00;;;;;;5074731;28;20210;-80
2023/11/16 11:22:28;;;;;;;4.33;1.37;;;10.00;1.00;;;;;;5074290;28;20721;-81
2023/11/16 11:24:55;;;;;;;5.10;1.60;;;9.70;1.00;;;;;;5074398;28;20271;-81
2023/11/16 11:27:25;;;;;;;2.37;1.30;;;9.60;1.00;;;;;;5071605;28;20218;-81
2023/11/16 11:29:54;;;;;;;1.87;1.00;;;9.40;1.00;;;;;;5067724;28;20203;-81
2023/11/16 11:32:27;;;;;;;2.10;0.97;;;9.10;1.00;;;;;;5074235;28;20832;-82
2023/11/16 11:34:54;;;;;;;4.33;0.93;;;9.10;1.00;;;;;;5070352;28;20206;-81
2023/11/16 11:37:21;;;;;;;3.20;0.87;;;9.00;1.00;;;;;;5075245;28;20214;-81
2023/11/16 11:39:50;;;;;;;2.97;0.77;;;9.00;1.00;;;;;;5075328;28;20213;-82
2023/11/16 11:42:17;;;;;;;3.83;0.90;;;8.90;1.00;;;;;;5074984;28;20259;-82
2023/11/16 11:44:52;;;;;;;3.00;0.80;;;9.10;1.00;;;;;;5064888;28;20271;-81
2023/11/16 11:47:19;;;;;;;2.87;1.00;;;9.50;1.00;;;;;;5063336;28;20607;-82
2023/11/16 11:49:46;;;;;;;4.17;1.10;;;10.00;1.00;;;;;;5073846;28;20704;-81
2023/11/16 11:52:14;;;;;;;5.23;1.13;;;10.10;1.00;;;;;;5066928;28;20651;-81
2023/11/16 11:54:43;;;;;;;4.67;1.10;;;10.20;1.00;;;;;;5067005;28;20198;-81
2023/11/16 11:57:11;;;;;;;2.27;1.10;;;10.10;1.00;;;;;;5075804;28;20227;-80
2023/11/16 11:59:38;;;;;;;4.93;0.60;;;9.90;1.00;;;;;;5068429;28;20604;-80
2023/11/16 12:02:07;;;;;;;3.10;0.53;;;9.80;1.00;;;;;;5070567;28;20236;-80
2023/11/16 12:04:34;;;;;;;3.70;0.90;;;9.90;1.00;;;;;;5066613;28;20222;-81
2023/11/16 12:07:07;;;;;;;3.83;1.10;;;9.90;1.00;;;;;;5075548;28;20586;-82
2023/11/16 12:09:34;;;;;;;2.13;0.83;;;9.60;1.00;;;;;;5069423;28;20206;-83
2023/11/16 12:12:03;;;;;;;3.17;0.90;;;9.50;1.00;;;;;;5065960;28;20673;-83
2023/11/16 12:14:37;;;;;;;3.17;1.53;;;9.40;1.00;;;;;;5066108;28;20283;-82
2023/11/16 12:17:04;;;;;;;2.87;1.30;;;9.40;1.00;;;;;;5074318;28;20686;-83
2023/11/16 12:19:32;;;;;;;3.60;1.43;;;9.30;1.00;;;;;;5063924;28;20583;-83
2023/11/16 12:21:59;;;;;;;2.90;1.50;;;9.30;1.00;;;;;;5067087;28;20222;-83
2023/11/16 12:24:30;;;;;;;1.87;0.70;;;9.40;1.00;;;;;;5058456;28;20304;-83
2023/11/16 12:26:58;;;;;;;4.20;1.17;;;9.40;1.00;;;;;;5065243;28;20312;-82
2023/11/16 12:29:26;;;;;;;1.00;0.73;;;9.40;1.00;;;;;;5073827;28;20217;-83
2023/11/16 12:31:55;;;;;;;1.07;0.50;;;9.50;1.00;;;;;;5064063;28;20206;-82
2023/11/16 12:34:25;;;;;;;4.37;0.63;;;9.60;1.00;;;;;;5063997;28;20650;-81
2023/11/16 12:36:54;;;;;;;2.80;0.70;;;9.60;1.00;;;;;;5061873;28;20227;-81
2023/11/16 12:39:25;;;;;;;3.13;1.00;;;9.60;1.00;;;;;;5066758;28;20202;-82
2023/11/16 12:41:52;;;;;;;4.13;1.67;;;9.60;1.00;;;;;;5069450;28;20270;-82
2023/11/16 12:44:19;;;;;;;2.90;1.30;;;9.40;1.00;;;;;;5073449;28;20283;-83
2023/11/16 12:46:47;;;;;;;3.07;1.90;;;9.70;1.00;;;;;;5074135;28;20756;-81
2023/11/16 12:49:16;;;;;;;4.57;1.60;;;9.60;1.00;;;;;;5073922;28;20202;-82
2023/11/16 12:51:43;;;;;;;2.67;1.70;;;9.50;1.00;;;;;;5065499;28;20206;-82
2023/11/16 12:54:10;;;;;;;5.27;1.40;;;9.50;1.00;;;;;;5066685;28;20662;-82
2023/11/16 12:56:37;;;;;;;2.37;1.67;;;9.50;1.00;;;;;;5064865;28;20273;-82
2023/11/16 12:59:06;;;;;;;2.30;1.13;;;9.90;1.00;;;;;;5059273;28;20623;-82
2023/11/16 13:01:33;;;;;;;2.63;1.30;;;9.90;1.00;;;;;;5073760;28;20234;-82
2023/11/16 13:04:00;;;;;;;2.97;1.10;;;9.80;1.00;;;;;;5065692;28;20578;-82
2023/11/16 13:06:28;;;;;;;2.50;1.53;;;9.80;1.00;;;;;;5073623;28;20709;-84
2023/11/16 13:08:55;;;;;;;2.30;1.20;;;9.80;1.00;;;;;;5073383;28;20206;-86
2023/11/16 13:11:22;;;;;;;2.47;0.90;;;9.70;1.00;;;;;;5073002;28;20218;-83